sensor_id;sensor_type;location;lat;lon;timestamp;pressure;altitude;pressure_sealevel;temperature;humidity
34674;BME280;20879;55.668;37.858;2023-02-25T00:00:01;97979.56;;;-2.77;97.98
34674;BME280;20879;55.668;37.858;2023-02-25T00:02:37;97971.16;;;-2.72;98.39
34674;BME280;20879;55.668;37.858;2023-02-25T00:05:07;97971.13;;;-2.76;97.87
34674;BME280;20879;55.668;37.858;2023-02-25T00:07:38;97968.47;;;-2.86;98.02
34674;BME280;20879;55.668;37.858;2023-02-25T00:10:11;97968.47;;;-2.86;98.37
34674;BME280;20879;55.668;37.858;2023-02-25T00:12:43;97967.66;;;-2.85;98.07
34674;BME280;20879;55.668;37.858;2023-02-25T00:15:12;97967.69;;;-2.80;98.36
34674;BME280;20879;55.668;37.858;2023-02-25T00:17:42;97966.03;;;-2.81;98.33
34674;BME280;20879;55.668;37.858;2023-02-25T00:20:16;97926.16;;;-2.96;98.66
34674;BME280;20879;55.668;37.858;2023-02-25T00:22:47;97964.28;;;-2.84;98.83
34674;BME280;20879;55.668;37.858;2023-02-25T00:25:16;97961.78;;;-2.81;98.76
34674;BME280;20879;55.668;37.858;2023-02-25T00:27:47;97960.91;;;-2.83;98.29
34674;BME280;20879;55.668;37.858;2023-02-25T00:30:16;97950.78;;;-2.83;98.79
34674;BME280;20879;55.668;37.858;2023-02-25T00:32:45;97934.72;;;-2.85;98.57
34674;BME280;20879;55.668;37.858;2023-02-25T00:35:15;97948.34;;;-2.73;98.90
34674;BME280;20879;55.668;37.858;2023-02-25T00:37:50;97917.03;;;-2.78;98.67
34674;BME280;20879;55.668;37.858;2023-02-25T00:40:23;97926.38;;;-2.74;98.56
34674;BME280;20879;55.668;37.858;2023-02-25T00:42:54;97938.25;;;-2.70;98.97
34674;BME280;20879;55.668;37.858;2023-02-25T00:45:23;97922.13;;;-2.78;98.42
34674;BME280;20879;55.668;37.858;2023-02-25T00:47:53;97926.44;;;-2.65;98.72
34674;BME280;20879;55.668;37.858;2023-02-25T00:50:27;97926.50;;;-2.64;98.76
34674;BME280;20879;55.668;37.858;2023-02-25T00:53:02;97923.91;;;-2.67;98.80
34674;BME280;20879;55.668;37.858;2023-02-25T00:55:31;97918.03;;;-2.64;98.55
34674;BME280;20879;55.668;37.858;2023-02-25T00:58:04;97913.75;;;-2.67;98.83
34674;BME280;20879;55.668;37.858;2023-02-25T01:00:33;97922.28;;;-2.60;98.98
34674;BME280;20879;55.668;37.858;2023-02-25T01:03:17;97921.47;;;-2.59;98.80
34674;BME280;20879;55.668;37.858;2023-02-25T01:05:47;97923.13;;;-2.58;98.60
34674;BME280;20879;55.668;37.858;2023-02-25T01:08:17;97916.41;;;-2.56;98.41
34674;BME280;20879;55.668;37.858;2023-02-25T01:10:46;97915.59;;;-2.52;98.52
34674;BME280;20879;55.668;37.858;2023-02-25T01:13:23;97912.22;;;-2.48;98.43
34674;BME280;20879;55.668;37.858;2023-02-25T01:15:52;97906.34;;;-2.47;98.92
34674;BME280;20879;55.668;37.858;2023-02-25T01:18:21;97911.44;;;-2.43;98.68
34674;BME280;20879;55.668;37.858;2023-02-25T01:20:55;97913.13;;;-2.42;98.52
34674;BME280;20879;55.668;37.858;2023-02-25T01:23:31;97904.63;;;-2.46;98.94
34674;BME280;20879;55.668;37.858;2023-02-25T01:26:06;97905.56;;;-2.39;98.94
34674;BME280;20879;55.668;37.858;2023-02-25T01:28:38;97893.66;;;-2.48;99.08
34674;BME280;20879;55.668;37.858;2023-02-25T01:31:15;97903.91;;;-2.33;98.85
34674;BME280;20879;55.668;37.858;2023-02-25T01:33:45;97898.84;;;-2.33;98.34
34674;BME280;20879;55.668;37.858;2023-02-25T01:36:14;97896.34;;;-2.30;98.91
34674;BME280;20879;55.668;37.858;2023-02-25T01:38:48;97895.47;;;-2.29;98.42
34674;BME280;20879;55.668;37.858;2023-02-25T01:41:24;97900.56;;;-2.27;98.52
34674;BME280;20879;55.668;37.858;2023-02-25T01:44:12;97898.91;;;-2.22;98.77
34674;BME280;20879;55.668;37.858;2023-02-25T01:46:48;97893.00;;;-2.24;98.87
34674;BME280;20879;55.668;37.858;2023-02-25T01:49:22;97886.19;;;-2.28;98.75
34674;BME280;20879;55.668;37.858;2023-02-25T01:51:58;97891.25;;;-2.34;98.44
34674;BME280;20879;55.668;37.858;2023-02-25T01:54:35;97897.16;;;-2.29;98.69
34674;BME280;20879;55.668;37.858;2023-02-25T01:57:12;97884.50;;;-2.26;98.64
34674;BME280;20879;55.668;37.858;2023-02-25T01:59:46;97883.69;;;-2.26;98.50
34674;BME280;20879;55.668;37.858;2023-02-25T02:02:19;97887.03;;;-2.29;99.00
34674;BME280;20879;55.668;37.858;2023-02-25T02:04:52;97887.88;;;-2.27;98.38
34674;BME280;20879;55.668;37.858;2023-02-25T02:07:29;97878.59;;;-2.28;98.69
34674;BME280;20879;55.668;37.858;2023-02-25T02:10:04;97880.28;;;-2.27;98.60
34674;BME280;20879;55.668;37.858;2023-02-25T02:12:36;97882.88;;;-2.21;98.74
34674;BME280;20879;55.668;37.858;2023-02-25T02:15:11;97881.19;;;-2.19;98.99
34674;BME280;20879;55.668;37.858;2023-02-25T02:17:45;97879.47;;;-2.18;98.78
34674;BME280;20879;55.668;37.858;2023-02-25T02:20:20;97876.94;;;-2.18;98.76
34674;BME280;20879;55.668;37.858;2023-02-25T02:23:15;97870.22;;;-2.18;99.04
34674;BME280;20879;55.668;37.858;2023-02-25T02:26:17;97869.34;;;-2.17;98.95
34674;BME280;20879;55.668;37.858;2023-02-25T02:29:19;97868.53;;;-2.14;98.53
34674;BME280;20879;55.668;37.858;2023-02-25T02:32:12;97871.88;;;-2.18;98.64
34674;BME280;20879;55.668;37.858;2023-02-25T02:34:49;97883.72;;;-2.20;99.00
34674;BME280;20879;55.668;37.858;2023-02-25T02:37:33;97865.13;;;-2.21;98.95
34674;BME280;20879;55.668;37.858;2023-02-25T02:40:17;97875.28;;;-2.15;98.63
34674;BME280;20879;55.668;37.858;2023-02-25T02:43:04;97855.81;;;-2.19;98.64
34674;BME280;20879;55.668;37.858;2023-02-25T02:45:40;97822.72;;;-2.40;98.63
34674;BME280;20879;55.668;37.858;2023-02-25T02:48:17;97849.84;;;-2.27;99.06
34674;BME280;20879;55.668;37.858;2023-02-25T02:50:51;97857.50;;;-2.24;98.89
34674;BME280;20879;55.668;37.858;2023-02-25T02:53:26;97822.69;;;-2.47;99.02
34674;BME280;20879;55.668;37.858;2023-02-25T02:56:00;97856.63;;;-2.24;99.13
34674;BME280;20879;55.668;37.858;2023-02-25T02:58:35;97857.50;;;-2.24;99.21
34674;BME280;20879;55.668;37.858;2023-02-25T03:01:07;97847.31;;;-2.27;99.27
34674;BME280;20879;55.668;37.858;2023-02-25T03:03:44;97851.59;;;-2.20;99.51
34674;BME280;20879;55.668;37.858;2023-02-25T03:06:27;97849.09;;;-2.15;99.29
34674;BME280;20879;55.668;37.858;2023-02-25T03:09:02;97844.88;;;-2.13;99.55
34674;BME280;20879;55.668;37.858;2023-02-25T03:11:34;97842.34;;;-2.12;99.25
34674;BME280;20879;55.668;37.858;2023-02-25T03:14:09;97843.22;;;-2.06;99.44
34674;BME280;20879;55.668;37.858;2023-02-25T03:16:43;97836.44;;;-2.09;99.14
34674;BME280;20879;55.668;37.858;2023-02-25T03:19:25;97808.44;;;-2.26;99.11
34674;BME280;20879;55.668;37.858;2023-02-25T03:21:59;97839.00;;;-2.01;99.14
34674;BME280;20879;55.668;37.858;2023-02-25T03:24:34;97842.38;;;-2.02;98.90
34674;BME280;20879;55.668;37.858;2023-02-25T03:27:22;97835.66;;;-1.96;99.32
34674;BME280;20879;55.668;37.858;2023-02-25T03:30:05;97825.53;;;-1.94;99.18
34674;BME280;20879;55.668;37.858;2023-02-25T03:32:44;97838.22;;;-1.91;99.01
34674;BME280;20879;55.668;37.858;2023-02-25T03:35:18;97836.50;;;-1.90;98.72
34674;BME280;20879;55.668;37.858;2023-02-25T03:37:53;97828.06;;;-1.89;98.99
34674;BME280;20879;55.668;37.858;2023-02-25T03:40:26;97837.41;;;-1.85;98.55
34674;BME280;20879;55.668;37.858;2023-02-25T03:42:59;97827.22;;;-1.93;98.80
34674;BME280;20879;55.668;37.858;2023-02-25T03:45:44;97830.59;;;-1.88;98.96
34674;BME280;20879;55.668;37.858;2023-02-25T03:48:14;97823.00;;;-1.88;98.72
34674;BME280;20879;55.668;37.858;2023-02-25T03:50:50;97824.72;;;-1.85;98.85
34674;BME280;20879;55.668;37.858;2023-02-25T03:53:28;97819.66;;;-1.82;98.63
34674;BME280;20879;55.668;37.858;2023-02-25T03:56:09;97828.97;;;-1.80;98.77
34674;BME280;20879;55.668;37.858;2023-02-25T03:58:42;97841.66;;;-1.80;98.70
34674;BME280;20879;55.668;37.858;2023-02-25T04:01:14;97825.59;;;-1.79;98.59
34674;BME280;20879;55.668;37.858;2023-02-25T04:03:46;97828.13;;;-1.76;98.64
34674;BME280;20879;55.668;37.858;2023-02-25T04:06:20;97824.75;;;-1.73;98.85
34674;BME280;20879;55.668;37.858;2023-02-25T04:08:50;97823.91;;;-1.70;98.95
34674;BME280;20879;55.668;37.858;2023-02-25T04:11:26;97819.72;;;-1.68;98.56
34674;BME280;20879;55.668;37.858;2023-02-25T04:13:55;97829.00;;;-1.67;98.61
34674;BME280;20879;55.668;37.858;2023-02-25T04:16:24;97807.84;;;-1.79;98.86
34674;BME280;20879;55.668;37.858;2023-02-25T04:18:59;97824.75;;;-1.73;98.55
34674;BME280;20879;55.668;37.858;2023-02-25T04:21:32;97818.00;;;-1.68;99.00
34674;BME280;20879;55.668;37.858;2023-02-25T04:24:02;97820.53;;;-1.66;98.71
34674;BME280;20879;55.668;37.858;2023-02-25T04:26:32;97812.94;;;-1.62;99.01
34674;BME280;20879;55.668;37.858;2023-02-25T04:29:02;97821.44;;;-1.58;98.99
34674;BME280;20879;55.668;37.858;2023-02-25T04:31:37;97815.50;;;-1.55;98.71
34674;BME280;20879;55.668;37.858;2023-02-25T04:34:06;97820.56;;;-1.54;98.64
34674;BME280;20879;55.668;37.858;2023-02-25T04:36:37;97790.09;;;-1.69;98.53
34674;BME280;20879;55.668;37.858;2023-02-25T04:39:07;97824.00;;;-1.46;99.34
34674;BME280;20879;55.668;37.858;2023-02-25T04:41:37;97799.41;;;-1.64;98.62
34674;BME280;20879;55.668;37.858;2023-02-25T04:44:07;97813.81;;;-1.53;98.58
34674;BME280;20879;55.668;37.858;2023-02-25T04:46:38;97818.91;;;-1.52;98.53
34674;BME280;20879;55.668;37.858;2023-02-25T04:49:13;97813.81;;;-1.52;98.43
34674;BME280;20879;55.668;37.858;2023-02-25T04:51:44;97823.97;;;-1.52;98.29
34674;BME280;20879;55.668;37.858;2023-02-25T04:54:15;97827.34;;;-1.50;98.91
34674;BME280;20879;55.668;37.858;2023-02-25T04:56:46;97821.44;;;-1.52;98.89
34674;BME280;20879;55.668;37.858;2023-02-25T04:59:21;97835.84;;;-1.45;99.08
34674;BME280;20879;55.668;37.858;2023-02-25T05:01:52;97807.88;;;-1.54;99.37
34674;BME280;20879;55.668;37.858;2023-02-25T05:04:21;97837.56;;;-1.37;98.98
34674;BME280;20879;55.668;37.858;2023-02-25T05:06:52;97840.09;;;-1.30;99.26
34674;BME280;20879;55.668;37.858;2023-02-25T05:09:21;97835.03;;;-1.24;99.04
34674;BME280;20879;55.668;37.858;2023-02-25T05:11:51;97829.97;;;-1.20;98.85
34674;BME280;20879;55.668;37.858;2023-02-25T05:14:25;97830.78;;;-1.23;98.79
34674;BME280;20879;55.668;37.858;2023-02-25T05:16:57;97837.56;;;-1.19;99.30
34674;BME280;20879;55.668;37.858;2023-02-25T05:19:26;97827.41;;;-1.19;99.10
34674;BME280;20879;55.668;37.858;2023-02-25T05:21:57;97836.75;;;-1.18;99.06
34674;BME280;20879;55.668;37.858;2023-02-25T05:24:26;97832.50;;;-1.19;98.88
34674;BME280;20879;55.668;37.858;2023-02-25T05:26:56;97839.28;;;-1.16;99.41
34674;BME280;20879;55.668;37.858;2023-02-25T05:29:34;97836.75;;;-1.10;99.72
34674;BME280;20879;55.668;37.858;2023-02-25T05:32:10;97838.44;;;-1.08;99.42
34674;BME280;20879;55.668;37.858;2023-02-25T05:34:39;97837.59;;;-1.03;99.49
34674;BME280;20879;55.668;37.858;2023-02-25T05:37:16;97837.59;;;-0.94;99.08
34674;BME280;20879;55.668;37.858;2023-02-25T05:39:45;97829.97;;;-0.90;99.19
34674;BME280;20879;55.668;37.858;2023-02-25T05:42:14;97827.44;;;-0.93;99.21
34674;BME280;20879;55.668;37.858;2023-02-25T05:44:43;97825.78;;;-0.89;99.03
34674;BME280;20879;55.668;37.858;2023-02-25T05:47:14;97813.06;;;-0.91;98.79
34674;BME280;20879;55.668;37.858;2023-02-25T05:49:43;97835.91;;;-0.77;99.15
34674;BME280;20879;55.668;37.858;2023-02-25T05:52:13;97841.88;;;-0.75;99.04
34674;BME280;20879;55.668;37.858;2023-02-25T05:54:44;97839.31;;;-0.72;98.88
34674;BME280;20879;55.668;37.858;2023-02-25T05:57:13;97846.94;;;-0.72;99.04
34674;BME280;20879;55.668;37.858;2023-02-25T05:59:49;97851.16;;;-0.74;98.79
34674;BME280;20879;55.668;37.858;2023-02-25T06:02:18;97837.63;;;-0.73;99.10
34674;BME280;20879;55.668;37.858;2023-02-25T06:04:47;97855.41;;;-0.63;98.78
34674;BME280;20879;55.668;37.858;2023-02-25T06:07:18;97852.00;;;-0.50;98.95
34674;BME280;20879;55.668;37.858;2023-02-25T06:09:49;97852.84;;;-0.39;99.00
34674;BME280;20879;55.668;37.858;2023-02-25T06:12:20;97855.38;;;-0.28;98.71
34674;BME280;20879;55.668;37.858;2023-02-25T06:15:00;97853.66;;;-0.21;98.69
34674;BME280;20879;55.668;37.858;2023-02-25T06:17:30;97846.00;;;-0.10;98.49
34674;BME280;20879;55.668;37.858;2023-02-25T06:19:59;97836.66;;;0.01;97.88
34674;BME280;20879;55.668;37.858;2023-02-25T06:22:31;97834.06;;;0.07;97.94
34674;BME280;20879;55.668;37.858;2023-02-25T06:25:02;97842.53;;;0.17;97.53
34674;BME280;20879;55.668;37.858;2023-02-25T06:27:32;97848.44;;;0.30;97.51
34674;BME280;20879;55.668;37.858;2023-02-25T06:30:01;97845.84;;;0.34;97.07
34674;BME280;20879;55.668;37.858;2023-02-25T06:32:31;97831.44;;;0.30;97.11
34674;BME280;20879;55.668;37.858;2023-02-25T06:35:00;97839.06;;;0.33;97.23
34674;BME280;20879;55.668;37.858;2023-02-25T06:37:34;97849.22;;;0.46;97.13
34674;BME280;20879;55.668;37.858;2023-02-25T06:40:07;97849.19;;;0.50;96.98
34674;BME280;20879;55.668;37.858;2023-02-25T06:42:43;97852.56;;;0.49;96.95
34674;BME280;20879;55.668;37.858;2023-02-25T06:45:12;97845.75;;;0.56;96.82
34674;BME280;20879;55.668;37.858;2023-02-25T06:47:41;97848.28;;;0.62;97.04
34674;BME280;20879;55.668;37.858;2023-02-25T06:50:11;97843.16;;;0.64;96.73
34674;BME280;20879;55.668;37.858;2023-02-25T06:52:40;97844.88;;;0.63;96.53
34674;BME280;20879;55.668;37.858;2023-02-25T06:55:11;97851.63;;;0.71;96.26
34674;BME280;20879;55.668;37.858;2023-02-25T06:57:42;97852.53;;;0.63;96.30
34674;BME280;20879;55.668;37.858;2023-02-25T07:00:12;97854.19;;;0.71;95.97
34674;BME280;20879;55.668;37.858;2023-02-25T07:02:41;97849.06;;;0.77;96.35
34674;BME280;20879;55.668;37.858;2023-02-25T07:05:10;97854.03;;;0.92;96.43
34674;BME280;20879;55.668;37.858;2023-02-25T07:07:40;97852.25;;;1.07;95.72
34674;BME280;20879;55.668;37.858;2023-02-25T07:10:11;97856.47;;;1.12;95.24
34674;BME280;20879;55.668;37.858;2023-02-25T07:12:46;97847.03;;;1.22;95.46
34674;BME280;20879;55.668;37.858;2023-02-25T07:15:15;97849.50;;;1.33;95.04
34674;BME280;20879;55.668;37.858;2023-02-25T07:17:44;97852.91;;;1.30;94.70
34674;BME280;20879;55.668;37.858;2023-02-25T07:20:13;97851.28;;;1.25;94.54
34674;BME280;20879;55.668;37.858;2023-02-25T07:22:43;97833.59;;;1.01;94.58
34674;BME280;20879;55.668;37.858;2023-02-25T07:25:19;97847.00;;;1.28;94.55
34674;BME280;20879;55.668;37.858;2023-02-25T07:27:51;97856.28;;;1.37;94.76
34674;BME280;20879;55.668;37.858;2023-02-25T07:30:20;97834.09;;;1.48;94.39
34674;BME280;20879;55.668;37.858;2023-02-25T07:32:54;97858.50;;;1.72;93.67
34674;BME280;20879;55.668;37.858;2023-02-25T07:35:24;97855.09;;;1.73;93.26
34674;BME280;20879;55.668;37.858;2023-02-25T07:37:53;97857.59;;;1.78;93.12
34674;BME280;20879;55.668;37.858;2023-02-25T07:40:25;97861.78;;;1.87;92.58
34674;BME280;20879;55.668;37.858;2023-02-25T07:42:59;97860.94;;;1.86;92.53
34674;BME280;20879;55.668;37.858;2023-02-25T07:45:29;97870.31;;;1.83;92.56
34674;BME280;20879;55.668;37.858;2023-02-25T07:47:58;97866.97;;;1.78;92.63
34674;BME280;20879;55.668;37.858;2023-02-25T07:50:27;97865.31;;;1.72;92.52
34674;BME280;20879;55.668;37.858;2023-02-25T07:52:56;97861.94;;;1.73;92.45
34674;BME280;20879;55.668;37.858;2023-02-25T07:55:27;97861.00;;;1.77;92.62
34674;BME280;20879;55.668;37.858;2023-02-25T07:57:57;97854.97;;;1.89;92.36
34674;BME280;20879;55.668;37.858;2023-02-25T08:00:26;97858.34;;;1.89;92.38
34674;BME280;20879;55.668;37.858;2023-02-25T08:03:00;97860.94;;;1.88;92.12
34674;BME280;20879;55.668;37.858;2023-02-25T08:05:33;97858.50;;;1.74;91.71
34674;BME280;20879;55.668;37.858;2023-02-25T08:08:07;97859.34;;;1.74;91.97
34674;BME280;20879;55.668;37.858;2023-02-25T08:10:38;97857.63;;;1.75;91.79
34674;BME280;20879;55.668;37.858;2023-02-25T08:13:07;97861.88;;;1.78;92.24
34674;BME280;20879;55.668;37.858;2023-02-25T08:15:39;97858.41;;;1.83;92.08
34674;BME280;20879;55.668;37.858;2023-02-25T08:18:15;97864.22;;;1.96;92.01
34674;BME280;20879;55.668;37.858;2023-02-25T08:20:45;97860.81;;;1.97;91.73
34674;BME280;20879;55.668;37.858;2023-02-25T08:23:15;97860.72;;;2.05;91.36
34674;BME280;20879;55.668;37.858;2023-02-25T08:25:54;97860.63;;;2.17;91.21
34674;BME280;20879;55.668;37.858;2023-02-25T08:28:24;97860.44;;;2.31;91.21
34674;BME280;20879;55.668;37.858;2023-02-25T08:31:01;97862.88;;;2.43;90.79
34674;BME280;20879;55.668;37.858;2023-02-25T08:33:36;97868.72;;;2.50;90.56
34674;BME280;20879;55.668;37.858;2023-02-25T08:36:07;97872.16;;;2.51;90.68
34674;BME280;20879;55.668;37.858;2023-02-25T08:38:37;97868.75;;;2.49;90.11
34674;BME280;20879;55.668;37.858;2023-02-25T08:41:08;97858.47;;;2.55;90.52
34674;BME280;20879;55.668;37.858;2023-02-25T08:43:42;97860.03;;;2.67;90.53
34674;BME280;20879;55.668;37.858;2023-02-25T08:46:12;97855.56;;;2.83;90.16
34674;BME280;20879;55.668;37.858;2023-02-25T08:48:42;97865.72;;;2.87;89.71
34674;BME280;20879;55.668;37.858;2023-02-25T08:51:11;97858.72;;;2.97;89.78
34674;BME280;20879;55.668;37.858;2023-02-25T08:53:41;97871.53;;;2.95;89.34
34674;BME280;20879;55.668;37.858;2023-02-25T08:56:13;97866.34;;;3.00;89.09
34674;BME280;20879;55.668;37.858;2023-02-25T08:58:44;97864.72;;;2.97;88.65
34674;BME280;20879;55.668;37.858;2023-02-25T09:01:15;97874.09;;;2.95;88.37
34674;BME280;20879;55.668;37.858;2023-02-25T09:03:52;97876.75;;;2.89;88.79
34674;BME280;20879;55.668;37.858;2023-02-25T09:06:28;97876.94;;;2.75;88.62
34674;BME280;20879;55.668;37.858;2023-02-25T09:09:04;97876.31;;;2.58;88.61
34674;BME280;20879;55.668;37.858;2023-02-25T09:11:35;97878.16;;;2.47;88.93
34674;BME280;20879;55.668;37.858;2023-02-25T09:14:05;97873.78;;;2.56;89.44
34674;BME280;20879;55.668;37.858;2023-02-25T09:16:34;97875.44;;;2.59;89.12
34674;BME280;20879;55.668;37.858;2023-02-25T09:19:03;97875.63;;;2.45;88.88
34674;BME280;20879;55.668;37.858;2023-02-25T09:21:33;97858.59;;;2.42;88.81
34674;BME280;20879;55.668;37.858;2023-02-25T09:24:04;97867.94;;;2.47;89.09
34674;BME280;20879;55.668;37.858;2023-02-25T09:26:35;97885.88;;;2.42;88.83
34674;BME280;20879;55.668;37.858;2023-02-25T09:29:05;97882.44;;;2.41;89.00
34674;BME280;20879;55.668;37.858;2023-02-25T09:31:40;97890.16;;;2.38;89.33
34674;BME280;20879;55.668;37.858;2023-02-25T09:34:10;97876.53;;;2.39;89.53
34674;BME280;20879;55.668;37.858;2023-02-25T09:36:41;97888.22;;;2.59;89.52
34674;BME280;20879;55.668;37.858;2023-02-25T09:39:10;97878.53;;;2.81;89.18
34674;BME280;20879;55.668;37.858;2023-02-25T09:41:53;97873.25;;;2.95;88.77
34674;BME280;20879;55.668;37.858;2023-02-25T09:44:31;97878.22;;;3.06;88.14
34674;BME280;20879;55.668;37.858;2023-02-25T09:47:04;97874.00;;;3.03;87.74
34674;BME280;20879;55.668;37.858;2023-02-25T09:49:46;97866.25;;;3.08;88.07
34674;BME280;20879;55.668;37.858;2023-02-25T09:52:26;97862.78;;;3.13;87.83
34674;BME280;20879;55.668;37.858;2023-02-25T09:55:01;97858.41;;;3.19;87.29
34674;BME280;20879;55.668;37.858;2023-02-25T09:57:37;97856.53;;;3.31;87.46
34674;BME280;20879;55.668;37.858;2023-02-25T10:00:16;97852.81;;;3.49;87.46
34674;BME280;20879;55.668;37.858;2023-02-25T10:02:49;97851.72;;;3.63;86.84
34674;BME280;20879;55.668;37.858;2023-02-25T10:05:36;97850.59;;;3.81;86.16
34674;BME280;20879;55.668;37.858;2023-02-25T10:08:11;97851.69;;;4.14;86.06
34674;BME280;20879;55.668;37.858;2023-02-25T10:10:53;97853.41;;;4.12;84.56
34674;BME280;20879;55.668;37.858;2023-02-25T10:13:35;97849.16;;;4.11;83.35
34674;BME280;20879;55.668;37.858;2023-02-25T10:16:27;97859.28;;;4.19;82.88
34674;BME280;20879;55.668;37.858;2023-02-25T10:19:10;97850.50;;;4.31;83.97
34674;BME280;20879;55.668;37.858;2023-02-25T10:21:49;97839.19;;;4.41;82.32
34674;BME280;20879;55.668;37.858;2023-02-25T10:24:32;97840.88;;;4.41;82.21
34674;BME280;20879;55.668;37.858;2023-02-25T10:27:07;97859.47;;;4.52;81.60
34674;BME280;20879;55.668;37.858;2023-02-25T10:29:55;97863.75;;;4.51;81.13
34674;BME280;20879;55.668;37.858;2023-02-25T10:32:29;97857.22;;;4.36;81.90
34674;BME280;20879;55.668;37.858;2023-02-25T10:35:14;97862.47;;;4.29;81.30
34674;BME280;20879;55.668;37.858;2023-02-25T10:37:45;97858.66;;;4.06;82.49
34674;BME280;20879;55.668;37.858;2023-02-25T10:40:26;97852.75;;;4.01;82.11
34674;BME280;20879;55.668;37.858;2023-02-25T10:43:08;97857.09;;;3.97;82.46
34674;BME280;20879;55.668;37.858;2023-02-25T10:45:46;97871.59;;;4.00;82.75
34674;BME280;20879;55.668;37.858;2023-02-25T10:48:20;97871.56;;;4.01;82.49
34674;BME280;20879;55.668;37.858;2023-02-25T10:51:03;97869.84;;;4.00;82.12
34674;BME280;20879;55.668;37.858;2023-02-25T10:53:35;97860.53;;;3.96;82.49
34674;BME280;20879;55.668;37.858;2023-02-25T10:56:05;97861.19;;;4.08;82.58
34674;BME280;20879;55.668;37.858;2023-02-25T10:58:38;97878.19;;;4.12;82.15
34674;BME280;20879;55.668;37.858;2023-02-25T11:01:12;97874.16;;;4.00;82.27
34674;BME280;20879;55.668;37.858;2023-02-25T11:03:52;97856.00;;;3.64;82.62
34674;BME280;20879;55.668;37.858;2023-02-25T11:06:26;97875.56;;;3.66;82.86
34674;BME280;20879;55.668;37.858;2023-02-25T11:08:58;97873.78;;;3.70;83.74
34674;BME280;20879;55.668;37.858;2023-02-25T11:11:51;97891.47;;;3.85;83.40
34674;BME280;20879;55.668;37.858;2023-02-25T11:14:26;97889.06;;;3.75;83.13
34674;BME280;20879;55.668;37.858;2023-02-25T11:17:05;97873.72;;;3.75;83.20
34674;BME280;20879;55.668;37.858;2023-02-25T11:19:37;97879.94;;;4.08;83.54
34674;BME280;20879;55.668;37.858;2023-02-25T11:22:09;97879.84;;;4.13;82.47
34674;BME280;20879;55.668;37.858;2023-02-25T11:24:39;97888.56;;;4.06;82.26
34674;BME280;20879;55.668;37.858;2023-02-25T11:27:22;97870.59;;;4.07;82.14
34674;BME280;20879;55.668;37.858;2023-02-25T11:30:03;97869.66;;;4.10;81.80
34674;BME280;20879;55.668;37.858;2023-02-25T11:32:39;97872.25;;;4.08;81.51
34674;BME280;20879;55.668;37.858;2023-02-25T11:35:16;97883.53;;;3.99;81.83
34674;BME280;20879;55.668;37.858;2023-02-25T11:37:46;97886.38;;;3.84;82.20
34674;BME280;20879;55.668;37.858;2023-02-25T11:40:23;97874.63;;;3.72;82.78
34674;BME280;20879;55.668;37.858;2023-02-25T11:43:13;97878.88;;;3.72;83.07
34674;BME280;20879;55.668;37.858;2023-02-25T11:46:02;97883.38;;;3.57;83.67
34674;BME280;20879;55.668;37.858;2023-02-25T11:48:45;97879.31;;;3.45;83.93
34674;BME280;20879;55.668;37.858;2023-02-25T11:51:25;97874.31;;;3.39;84.37
34674;BME280;20879;55.668;37.858;2023-02-25T11:54:11;97878.31;;;3.54;84.11
34674;BME280;20879;55.668;37.858;2023-02-25T11:56:50;97868.97;;;3.53;84.24
34674;BME280;20879;55.668;37.858;2023-02-25T11:59:30;97875.66;;;3.62;83.34
34674;BME280;20879;55.668;37.858;2023-02-25T12:02:25;97884.28;;;3.56;83.53
34674;BME280;20879;55.668;37.858;2023-02-25T12:08:29;97879.44;;;3.38;83.97
34674;BME280;20879;55.668;37.858;2023-02-25T12:17:48;97897.63;;;3.21;84.40
34674;BME280;20879;55.668;37.858;2023-02-25T12:20:50;97897.69;;;3.14;84.55
34674;BME280;20879;55.668;37.858;2023-02-25T12:27:11;97902.75;;;3.18;84.89
34674;BME280;20879;55.668;37.858;2023-02-25T12:30:03;97904.34;;;3.26;85.20
34674;BME280;20879;55.668;37.858;2023-02-25T12:32:46;97906.81;;;3.32;84.66
34674;BME280;20879;55.668;37.858;2023-02-25T12:35:32;97892.31;;;3.33;84.33
34674;BME280;20879;55.668;37.858;2023-02-25T12:38:23;97894.81;;;3.36;84.51
34674;BME280;20879;55.668;37.858;2023-02-25T12:41:08;97895.63;;;3.38;84.16
34674;BME280;20879;55.668;37.858;2023-02-25T12:43:48;97895.03;;;3.22;84.42
34674;BME280;20879;55.668;37.858;2023-02-25T12:53:27;97904.94;;;2.85;84.78
34674;BME280;20879;55.668;37.858;2023-02-25T12:56:24;97916.19;;;2.71;86.53
34674;BME280;20879;55.668;37.858;2023-02-25T12:59:12;97913.59;;;2.73;87.12
34674;BME280;20879;55.668;37.858;2023-02-25T13:02:14;97911.69;;;2.89;87.19
34674;BME280;20879;55.668;37.858;2023-02-25T13:05:04;97908.06;;;3.05;87.31
34674;BME280;20879;55.668;37.858;2023-02-25T13:08:00;97916.38;;;3.20;86.51
34674;BME280;20879;55.668;37.858;2023-02-25T13:10:44;97904.56;;;3.12;86.68
34674;BME280;20879;55.668;37.858;2023-02-25T13:13:37;97903.72;;;3.09;86.83
34674;BME280;20879;55.668;37.858;2023-02-25T13:16:20;97911.44;;;3.07;86.91
34674;BME280;20879;55.668;37.858;2023-02-25T13:19:08;97909.00;;;2.98;87.24
34674;BME280;20879;55.668;37.858;2023-02-25T13:21:51;97903.00;;;3.02;87.57
34674;BME280;20879;55.668;37.858;2023-02-25T13:24:32;97905.56;;;3.02;88.02
34674;BME280;20879;55.668;37.858;2023-02-25T13:27:31;97885.25;;;2.90;87.90
34674;BME280;20879;55.668;37.858;2023-02-25T13:30:18;97906.53;;;2.92;88.27
34674;BME280;20879;55.668;37.858;2023-02-25T13:32:59;97898.13;;;2.84;88.19
34674;BME280;20879;55.668;37.858;2023-02-25T13:35:52;97905.84;;;2.79;88.66
34674;BME280;20879;55.668;37.858;2023-02-25T13:38:39;97887.22;;;2.69;88.83
34674;BME280;20879;55.668;37.858;2023-02-25T13:41:27;97905.84;;;2.79;88.64
34674;BME280;20879;55.668;37.858;2023-02-25T13:47:32;97893.03;;;2.80;89.03
34674;BME280;20879;55.668;37.858;2023-02-25T13:50:44;97902.34;;;2.86;89.65
34674;BME280;20879;55.668;37.858;2023-02-25T13:53:39;97906.72;;;2.76;89.67
34674;BME280;20879;55.668;37.858;2023-02-25T13:59:42;97904.28;;;2.69;90.00
34674;BME280;20879;55.668;37.858;2023-02-25T14:02:32;97898.38;;;2.65;89.90
34674;BME280;20879;55.668;37.858;2023-02-25T14:05:26;97898.34;;;2.68;90.83